Time;durP1;ratioP1;P1;durP2;ratioP2;P2;SDS_P1;SDS_P2;PMS_P1;PMS_P2;Temp;Humidity;BMP_temperature;BMP_pressure;BME280_temperature;BME280_humidity;BME280_pressure;Samples;Min_cycle;Max_cycle;Signal;HPM_P1;HPM_P2
2024/03/12 00:04:40;;;;;;;2.47;1.60;;;;;;;;;;13102349;22;20023;-75
2024/03/12 00:09:45;;;;;;;3.10;2.40;;;;;;;;;;13102041;22;20015;-75
2024/03/12 00:14:49;;;;;;;4.32;2.47;;;;;;;;;;13101275;22;20027;-75
2024/03/12 00:19:53;;;;;;;3.55;1.95;;;;;;;;;;13100909;22;20023;-75
2024/03/12 00:24:58;;;;;;;1.92;1.73;;;;;;;;;;13101740;22;20018;-75
2024/03/12 00:30:02;;;;;;;1.40;1.23;;;;;;;;;;13102071;22;20049;-75
2024/03/12 00:35:06;;;;;;;1.83;1.25;;;;;;;;;;13120881;22;20327;-75
2024/03/12 00:40:12;;;;;;;2.13;1.40;;;;;;;;;;13100325;22;20075;-75
2024/03/12 00:45:25;;;;;;;1.27;1.07;;;;;;;;;;13120040;22;20018;-75
2024/03/12 00:50:28;;;;;;;1.25;1.15;;;;;;;;;;13119031;22;20026;-75
2024/03/12 00:55:35;;;;;;;1.85;1.35;;;;;;;;;;13099158;22;20030;-75
2024/03/12 01:00:39;;;;;;;1.50;1.23;;;;;;;;;;13117800;22;20592;-75
2024/03/12 01:05:43;;;;;;;1.85;1.20;;;;;;;;;;13100558;22;20026;-75
2024/03/12 01:10:48;;;;;;;1.85;1.33;;;;;;;;;;13098304;22;20026;-75
2024/03/12 01:15:52;;;;;;;1.35;1.25;;;;;;;;;;13117788;22;20026;-75
2024/03/12 01:20:56;;;;;;;2.75;1.77;;;;;;;;;;13071360;22;20041;-75
2024/03/12 01:26:04;;;;;;;2.60;1.80;;;;;;;;;;13071870;22;20385;-75
2024/03/12 01:31:07;;;;;;;2.65;1.48;;;;;;;;;;13114963;22;20396;-75
2024/03/12 01:36:20;;;;;;;2.88;1.90;;;;;;;;;;13116009;22;20533;-75
2024/03/12 01:41:26;;;;;;;2.88;1.83;;;;;;;;;;13099047;22;20026;-75
2024/03/12 01:46:31;;;;;;;1.77;1.42;;;;;;;;;;13113326;22;20031;-75
2024/03/12 01:51:35;;;;;;;1.98;1.55;;;;;;;;;;13113263;22;20382;-75
2024/03/12 01:56:40;;;;;;;3.47;2.22;;;;;;;;;;13113336;22;20189;-75
2024/03/12 02:01:43;;;;;;;2.53;1.92;;;;;;;;;;13111959;22;20042;-75
2024/03/12 02:06:49;;;;;;;3.17;2.47;;;;;;;;;;13112899;22;20027;-75
2024/03/12 02:11:54;;;;;;;3.30;2.65;;;;;;;;;;13111679;22;20027;-75
2024/03/12 02:16:57;;;;;;;3.90;3.00;;;;;;;;;;13099531;22;20080;-75
2024/03/12 02:22:00;;;;;;;4.70;3.38;;;;;;;;;;13110853;22;20092;-75
2024/03/12 02:27:05;;;;;;;4.00;3.08;;;;;;;;;;13097671;22;20022;-75
2024/03/12 02:32:09;;;;;;;6.18;4.07;;;;;;;;;;13109312;22;20406;-75
2024/03/12 02:37:12;;;;;;;3.47;2.72;;;;;;;;;;13098240;22;20076;-75
2024/03/12 02:42:17;;;;;;;4.30;3.30;;;;;;;;;;13108332;22;20023;-75
2024/03/12 02:47:20;;;;;;;3.78;2.95;;;;;;;;;;13090428;22;20023;-75
2024/03/12 02:52:24;;;;;;;3.78;2.53;;;;;;;;;;13111979;22;20030;-75
2024/03/12 02:57:28;;;;;;;3.17;2.08;;;;;;;;;;13111477;22;20030;-75
2024/03/12 03:02:33;;;;;;;3.65;2.40;;;;;;;;;;13112482;22;20128;-75
2024/03/12 03:07:36;;;;;;;4.05;2.80;;;;;;;;;;13103188;22;20023;-75
2024/03/12 03:12:41;;;;;;;2.75;2.20;;;;;;;;;;13111110;22;20567;-75
2024/03/12 03:17:45;;;;;;;2.08;1.85;;;;;;;;;;13110455;22;20022;-75
2024/03/12 03:22:50;;;;;;;2.83;2.00;;;;;;;;;;13110988;22;20405;-75
2024/03/12 03:27:55;;;;;;;5.47;3.40;;;;;;;;;;13110763;22;20038;-75
2024/03/12 03:32:58;;;;;;;3.60;2.50;;;;;;;;;;13108475;22;20076;-75
2024/03/12 03:38:02;;;;;;;5.18;3.72;;;;;;;;;;13100175;22;20023;-75
2024/03/12 03:43:07;;;;;;;3.42;2.75;;;;;;;;;;13108992;22;20027;-75
2024/03/12 03:48:11;;;;;;;3.95;2.90;;;;;;;;;;13107944;22;20096;-75
2024/03/12 03:53:14;;;;;;;3.90;2.60;;;;;;;;;;13108275;22;20031;-75
2024/03/12 03:58:19;;;;;;;2.67;2.15;;;;;;;;;;13099722;22;20022;-75
2024/03/12 04:03:25;;;;;;;3.33;2.50;;;;;;;;;;13099923;22;20069;-75
2024/03/12 04:08:30;;;;;;;3.33;2.60;;;;;;;;;;13101384;22;20102;-75
2024/03/12 04:13:35;;;;;;;2.90;2.27;;;;;;;;;;13105932;22;20022;-75
2024/03/12 04:18:38;;;;;;;3.90;2.80;;;;;;;;;;13105773;22;20026;-75
2024/03/12 04:23:43;;;;;;;3.85;2.60;;;;;;;;;;13100396;22;20019;-75
2024/03/12 04:28:47;;;;;;;4.55;3.30;;;;;;;;;;13098984;22;20072;-75
2024/03/12 04:33:52;;;;;;;6.18;3.20;;;;;;;;;;13099995;22;20710;-75
2024/03/12 04:38:55;;;;;;;4.32;3.53;;;;;;;;;;13104715;22;20022;-75
2024/03/12 04:44:01;;;;;;;6.05;4.78;;;;;;;;;;13104561;22;20070;-75
2024/03/12 04:49:04;;;;;;;4.30;3.42;;;;;;;;;;13104683;22;20027;-75
2024/03/12 04:54:10;;;;;;;7.70;5.38;;;;;;;;;;13103666;22;20506;-75
2024/03/12 04:59:15;;;;;;;6.25;4.35;;;;;;;;;;13103006;22;20501;-75
2024/03/12 05:04:21;;;;;;;5.72;3.90;;;;;;;;;;13104428;22;20072;-75
2024/03/12 05:09:24;;;;;;;6.72;4.85;;;;;;;;;;13099441;22;20340;-75
2024/03/12 05:14:29;;;;;;;8.10;5.90;;;;;;;;;;13101918;22;20052;-75
2024/03/12 05:19:32;;;;;;;7.70;5.25;;;;;;;;;;13093920;22;20030;-73
2024/03/12 05:24:36;;;;;;;5.28;4.07;;;;;;;;;;13102592;22;20023;-72
2024/03/12 05:29:43;;;;;;;5.60;3.65;;;;;;;;;;13101285;22;20042;-72
2024/03/12 05:34:47;;;;;;;4.18;2.90;;;;;;;;;;13100123;22;20057;-72
2024/03/12 05:40:00;;;;;;;3.42;2.75;;;;;;;;;;13096434;22;20033;-72
2024/03/12 05:50:27;;;;;;;3.38;2.38;;;;;;;;;;13116080;22;20022;-73
2024/03/12 05:55:30;;;;;;;3.47;2.50;;;;;;;;;;13070217;22;20019;-73
2024/03/12 06:00:35;;;;;;;3.28;2.63;;;;;;;;;;13114619;22;20126;-73
2024/03/12 06:05:38;;;;;;;3.13;2.60;;;;;;;;;;13097216;22;20101;-73
2024/03/12 06:10:42;;;;;;;4.05;3.08;;;;;;;;;;13115365;22;20102;-73
2024/03/12 06:15:46;;;;;;;3.35;2.78;;;;;;;;;;13069864;22;20057;-73
2024/03/12 06:20:50;;;;;;;4.22;2.47;;;;;;;;;;13096460;22;20596;-73
2024/03/12 06:25:54;;;;;;;3.70;2.67;;;;;;;;;;13113613;22;20052;-72
2024/03/12 06:30:59;;;;;;;4.10;2.55;;;;;;;;;;13086583;22;20023;-72
2024/03/12 06:36:03;;;;;;;3.17;2.57;;;;;;;;;;13118441;22;20030;-72
2024/03/12 06:41:07;;;;;;;3.28;2.67;;;;;;;;;;13116271;22;20320;-73
2024/03/12 06:46:18;;;;;;;4.90;3.72;;;;;;;;;;13101186;22;20023;-72
2024/03/12 06:51:21;;;;;;;5.90;4.43;;;;;;;;;;13115986;22;20027;-72
2024/03/12 06:56:27;;;;;;;7.43;4.47;;;;;;;;;;13115573;22;20026;-72
2024/03/12 07:01:31;;;;;;;6.90;4.73;;;;;;;;;;13071573;22;20418;-73
2024/03/12 07:06:35;;;;;;;8.48;5.65;;;;;;;;;;13072351;22;20458;-72
2024/03/12 07:11:39;;;;;;;9.93;6.45;;;;;;;;;;13113437;22;20220;-72
2024/03/12 07:16:44;;;;;;;8.27;5.78;;;;;;;;;;13114437;22;20029;-72
2024/03/12 07:21:47;;;;;;;10.00;7.00;;;;;;;;;;13113105;22;20042;-73
2024/03/12 07:26:50;;;;;;;9.35;6.40;;;;;;;;;;13113595;22;20101;-73
2024/03/12 07:31:55;;;;;;;7.78;5.60;;;;;;;;;;13111946;22;20094;-73
2024/03/12 07:36:59;;;;;;;10.68;7.25;;;;;;;;;;13108455;22;20023;-72
2024/03/12 07:42:06;;;;;;;11.40;8.13;;;;;;;;;;13110034;22;20354;-72
2024/03/12 07:47:12;;;;;;;12.93;8.35;;;;;;;;;;13071882;22;20057;-73
2024/03/12 07:52:15;;;;;;;12.48;8.43;;;;;;;;;;13096973;22;20074;-73
2024/03/12 07:57:19;;;;;;;12.85;8.68;;;;;;;;;;13108905;22;20042;-73
2024/03/12 08:02:24;;;;;;;11.63;7.88;;;;;;;;;;13069165;22;20065;-72
2024/03/12 08:07:29;;;;;;;17.35;10.00;;;;;;;;;;13090576;22;20027;-73
2024/03/12 08:12:33;;;;;;;12.25;8.25;;;;;;;;;;13103141;22;20023;-72
2024/03/12 08:17:39;;;;;;;14.55;9.02;;;;;;;;;;13108012;22;20094;-73
2024/03/12 08:22:42;;;;;;;15.07;10.02;;;;;;;;;;13108247;22;20470;-72
2024/03/12 08:27:47;;;;;;;14.10;8.48;;;;;;;;;;13099831;22;20098;-73
2024/03/12 08:32:52;;;;;;;11.38;8.15;;;;;;;;;;13107994;22;20390;-73
2024/03/12 08:37:55;;;;;;;12.43;7.93;;;;;;;;;;13108196;22;20438;-73
2024/03/12 08:42:59;;;;;;;16.65;9.30;;;;;;;;;;13099110;22;20478;-73
2024/03/12 08:48:06;;;;;;;11.20;7.05;;;;;;;;;;13098485;22;20524;-72
2024/03/12 08:53:11;;;;;;;12.30;8.23;;;;;;;;;;13106237;22;20709;-73
2024/03/12 08:58:17;;;;;;;10.75;6.82;;;;;;;;;;13098529;22;20034;-73
2024/03/12 09:03:22;;;;;;;7.95;5.47;;;;;;;;;;13093711;22;20065;-73
2024/03/12 09:08:25;;;;;;;10.38;6.93;;;;;;;;;;13104648;22;20042;-73
2024/03/12 09:13:31;;;;;;;10.20;6.38;;;;;;;;;;13069902;22;20053;-72
2024/03/12 09:18:35;;;;;;;11.38;7.18;;;;;;;;;;13100454;22;20029;-73
2024/03/12 09:23:39;;;;;;;13.82;8.80;;;;;;;;;;13067617;22;20022;-73
2024/03/12 09:28:45;;;;;;;10.15;6.78;;;;;;;;;;13096524;22;20022;-72
2024/03/12 09:33:51;;;;;;;8.75;5.78;;;;;;;;;;13100719;22;20106;-72
2024/03/12 09:38:55;;;;;;;9.35;6.13;;;;;;;;;;13101500;22;20061;-72
2024/03/12 09:43:58;;;;;;;9.25;6.57;;;;;;;;;;13099420;22;20102;-72
2024/03/12 09:49:03;;;;;;;9.40;5.45;;;;;;;;;;13093754;22;20033;-72
2024/03/12 09:54:06;;;;;;;10.50;6.75;;;;;;;;;;13095412;22;20031;-72
2024/03/12 09:59:09;;;;;;;9.93;6.72;;;;;;;;;;13095841;22;20569;-73
2024/03/12 10:04:15;;;;;;;8.52;6.13;;;;;;;;;;13095960;22;20019;-72
2024/03/12 10:09:19;;;;;;;11.82;6.85;;;;;;;;;;13094361;22;20026;-73
2024/03/12 10:14:23;;;;;;;9.05;6.22;;;;;;;;;;13095934;22;20023;-73
2024/03/12 10:19:29;;;;;;;11.47;6.80;;;;;;;;;;13096435;22;20607;-73
2024/03/12 10:24:33;;;;;;;8.20;6.20;;;;;;;;;;13097718;22;20102;-73
2024/03/12 10:29:37;;;;;;;9.68;6.78;;;;;;;;;;13097409;22;20049;-73
2024/03/12 10:34:41;;;;;;;7.78;5.70;;;;;;;;;;13068918;22;20381;-73
2024/03/12 10:39:45;;;;;;;8.88;5.68;;;;;;;;;;13097496;22;20580;-73
2024/03/12 10:44:49;;;;;;;7.35;5.13;;;;;;;;;;13068624;22;20015;-73
2024/03/12 10:49:56;;;;;;;11.02;7.28;;;;;;;;;;13096131;22;20058;-73
2024/03/12 10:54:59;;;;;;;9.52;6.45;;;;;;;;;;13096154;22;20019;-73
2024/03/12 11:00:08;;;;;;;7.93;5.20;;;;;;;;;;13067712;22;20397;-73
2024/03/12 11:05:12;;;;;;;6.95;4.63;;;;;;;;;;13116642;22;20481;-73
2024/03/12 11:10:16;;;;;;;7.20;5.07;;;;;;;;;;13066909;22;20106;-73
2024/03/12 11:15:19;;;;;;;8.10;5.75;;;;;;;;;;13096459;22;20093;-73
2024/03/12 11:20:25;;;;;;;9.02;5.72;;;;;;;;;;13104672;22;20031;-75
2024/03/12 11:25:33;;;;;;;6.90;5.05;;;;;;;;;;13118169;22;20542;-75
2024/03/12 11:30:37;;;;;;;9.95;7.03;;;;;;;;;;13116704;22;20037;-75
2024/03/12 11:35:42;;;;;;;12.63;8.75;;;;;;;;;;13072588;22;20034;-75
2024/03/12 11:40:51;;;;;;;10.93;6.90;;;;;;;;;;13116942;22;20030;-75
2024/03/12 11:45:54;;;;;;;10.90;7.35;;;;;;;;;;13116823;22;20026;-75
2024/03/12 11:50:59;;;;;;;12.10;8.80;;;;;;;;;;13100254;22;20027;-75
2024/03/12 11:56:11;;;;;;;11.03;8.30;;;;;;;;;;13116084;22;20528;-75
2024/03/12 12:01:19;;;;;;;9.85;7.18;;;;;;;;;;13114612;22;20093;-75
2024/03/12 12:06:25;;;;;;;10.90;7.63;;;;;;;;;;13072123;22;20054;-75
2024/03/12 12:11:31;;;;;;;12.60;8.20;;;;;;;;;;13112980;22;20026;-75
2024/03/12 12:16:35;;;;;;;9.65;7.00;;;;;;;;;;13098960;22;20024;-75
2024/03/12 12:21:39;;;;;;;11.25;8.05;;;;;;;;;;13113283;22;20080;-75
2024/03/12 12:26:45;;;;;;;11.13;7.43;;;;;;;;;;13112258;22;20030;-76
2024/03/12 12:31:51;;;;;;;14.03;10.20;;;;;;;;;;13110953;22;20019;-75
2024/03/12 12:36:57;;;;;;;10.73;7.43;;;;;;;;;;13112757;22;20269;-75
2024/03/12 12:42:01;;;;;;;17.30;10.10;;;;;;;;;;13110221;22;20026;-75
2024/03/12 12:47:06;;;;;;;11.80;7.70;;;;;;;;;;13098159;22;20373;-75
2024/03/12 12:52:11;;;;;;;10.45;6.72;;;;;;;;;;13098052;22;20030;-75
2024/03/12 12:57:14;;;;;;;10.25;6.35;;;;;;;;;;13099103;22;20497;-75
2024/03/12 13:02:19;;;;;;;15.63;9.48;;;;;;;;;;13108249;22;20528;-75
2024/03/12 13:07:32;;;;;;;19.50;11.80;;;;;;;;;;13109341;22;20087;-76
2024/03/12 13:12:36;;;;;;;14.80;9.77;;;;;;;;;;13098197;22;20327;-75
2024/03/12 13:17:40;;;;;;;16.10;10.90;;;;;;;;;;13107820;22;20357;-75
2024/03/12 13:22:44;;;;;;;17.27;9.63;;;;;;;;;;13107569;22;20388;-75
2024/03/12 13:27:48;;;;;;;16.13;10.43;;;;;;;;;;13107184;22;20031;-76
2024/03/12 13:32:52;;;;;;;14.05;8.40;;;;;;;;;;13106227;22;20023;-75
2024/03/12 13:37:56;;;;;;;12.25;8.10;;;;;;;;;;13098275;22;20050;-76
2024/03/12 13:43:00;;;;;;;8.23;5.43;;;;;;;;;;13105457;22;20693;-75
2024/03/12 13:48:04;;;;;;;10.73;7.35;;;;;;;;;;13105546;22;20338;-75
2024/03/12 13:53:09;;;;;;;13.57;8.60;;;;;;;;;;13097879;22;20015;-75
2024/03/12 13:58:13;;;;;;;19.30;11.73;;;;;;;;;;13104641;22;20101;-75
2024/03/12 14:03:16;;;;;;;15.85;9.50;;;;;;;;;;13103457;22;20043;-75
2024/03/12 14:08:23;;;;;;;25.67;14.77;;;;;;;;;;13104881;22;20117;-75
2024/03/12 14:13:27;;;;;;;20.10;12.10;;;;;;;;;;13102351;22;20676;-75
2024/03/12 14:18:31;;;;;;;19.35;11.82;;;;;;;;;;13102938;22;20026;-75
2024/03/12 14:23:37;;;;;;;15.93;10.00;;;;;;;;;;13097461;22;20026;-75
2024/03/12 14:28:40;;;;;;;18.10;11.23;;;;;;;;;;13102783;22;20050;-75
2024/03/12 14:33:44;;;;;;;22.70;13.77;;;;;;;;;;13102098;22;20038;-75
2024/03/12 14:38:48;;;;;;;24.70;15.65;;;;;;;;;;13101064;22;20080;-75
2024/03/12 14:43:53;;;;;;;24.43;14.50;;;;;;;;;;13098336;22;20051;-75
2024/03/12 14:48:56;;;;;;;26.08;16.20;;;;;;;;;;13102834;22;20026;-75
2024/03/12 14:54:02;;;;;;;26.25;15.20;;;;;;;;;;13098976;22;20453;-75
2024/03/12 14:59:05;;;;;;;27.40;15.53;;;;;;;;;;13100495;22;20118;-75
2024/03/12 15:04:09;;;;;;;21.55;13.05;;;;;;;;;;13103852;22;20037;-75
2024/03/12 15:09:14;;;;;;;27.27;16.13;;;;;;;;;;13101143;22;20052;-75
2024/03/12 15:14:17;;;;;;;22.40;12.38;;;;;;;;;;13073411;22;20021;-75
2024/03/12 15:19:20;;;;;;;28.00;15.82;;;;;;;;;;13102706;22;20101;-75
2024/03/12 15:24:26;;;;;;;23.25;13.52;;;;;;;;;;13102495;22;20025;-75
2024/03/12 15:29:32;;;;;;;25.05;15.35;;;;;;;;;;13101690;22;20596;-75
2024/03/12 15:34:35;;;;;;;24.05;15.20;;;;;;;;;;13098499;22;20101;-75
2024/03/12 15:39:40;;;;;;;25.85;15.52;;;;;;;;;;13100178;22;20365;-75
2024/03/12 15:44:43;;;;;;;22.30;13.60;;;;;;;;;;13099872;22;20102;-75
2024/03/12 15:49:46;;;;;;;23.38;13.88;;;;;;;;;;13099071;22;20509;-75
2024/03/12 15:54:51;;;;;;;21.52;13.45;;;;;;;;;;13098506;22;20039;-75
2024/03/12 15:59:54;;;;;;;21.50;12.60;;;;;;;;;;13099399;22;20046;-76
2024/03/12 16:04:58;;;;;;;23.67;12.88;;;;;;;;;;13120245;22;20412;-75
2024/03/12 16:10:03;;;;;;;19.55;11.63;;;;;;;;;;13071468;22;20114;-75
2024/03/12 16:15:09;;;;;;;12.90;7.93;;;;;;;;;;13119435;22;20327;-75
2024/03/12 16:20:19;;;;;;;14.37;8.63;;;;;;;;;;13096625;22;20357;-74
2024/03/12 16:25:23;;;;;;;13.93;8.75;;;;;;;;;;13097362;22;20536;-74
2024/03/12 16:30:27;;;;;;;15.88;9.98;;;;;;;;;;13069356;22;20621;-74
2024/03/12 16:35:30;;;;;;;13.40;8.13;;;;;;;;;;13095868;22;20080;-74
2024/03/12 16:40:34;;;;;;;12.70;8.85;;;;;;;;;;13116199;22;20085;-74
2024/03/12 16:45:38;;;;;;;12.27;7.68;;;;;;;;;;13116771;22;20048;-74
2024/03/12 16:50:42;;;;;;;12.00;7.50;;;;;;;;;;13099507;22;20019;-74
2024/03/12 16:55:47;;;;;;;9.13;6.65;;;;;;;;;;13116373;22;20046;-74
2024/03/12 17:00:51;;;;;;;8.05;5.30;;;;;;;;;;13115838;22;20106;-74
2024/03/12 17:05:56;;;;;;;7.68;5.28;;;;;;;;;;13115773;22;20054;-74
2024/03/12 17:11:01;;;;;;;10.18;6.80;;;;;;;;;;13114848;22;20030;-74
2024/03/12 17:16:07;;;;;;;8.13;5.47;;;;;;;;;;13114804;22;20026;-74
2024/03/12 17:21:11;;;;;;;9.55;6.65;;;;;;;;;;13099498;22;20422;-72
2024/03/12 17:26:17;;;;;;;13.30;6.13;;;;;;;;;;13113673;22;20026;-71
2024/03/12 17:31:21;;;;;;;9.68;5.95;;;;;;;;;;13108679;22;20102;-71
2024/03/12 17:36:26;;;;;;;11.77;7.35;;;;;;;;;;13092150;22;20018;-72
2024/03/12 17:41:31;;;;;;;11.20;7.20;;;;;;;;;;13090179;22;20030;-72
2024/03/12 17:46:42;;;;;;;10.73;7.03;;;;;;;;;;13109915;22;20101;-71
2024/03/12 17:51:46;;;;;;;12.23;7.32;;;;;;;;;;13093763;22;20752;-72
2024/03/12 17:56:55;;;;;;;11.38;7.32;;;;;;;;;;13090831;22;20027;-73
2024/03/12 18:02:00;;;;;;;10.52;7.20;;;;;;;;;;13106538;22;20473;-73
2024/03/12 18:07:07;;;;;;;11.63;7.27;;;;;;;;;;13108162;22;20093;-73
2024/03/12 18:12:14;;;;;;;11.80;7.07;;;;;;;;;;13066955;22;20027;-73
2024/03/12 18:17:18;;;;;;;10.93;7.20;;;;;;;;;;13106470;22;20110;-73
2024/03/12 18:22:22;;;;;;;9.68;6.53;;;;;;;;;;13104941;22;20101;-73
2024/03/12 18:27:27;;;;;;;13.88;8.38;;;;;;;;;;13106565;22;20022;-74
2024/03/12 18:32:30;;;;;;;12.68;8.05;;;;;;;;;;13107165;22;20046;-73
2024/03/12 18:37:34;;;;;;;12.77;7.28;;;;;;;;;;13098531;22;20029;-74
2024/03/12 18:42:39;;;;;;;12.63;7.60;;;;;;;;;;13107371;22;20076;-74
2024/03/12 18:47:43;;;;;;;11.18;7.32;;;;;;;;;;13069238;22;20073;-73
2024/03/12 18:52:47;;;;;;;11.55;6.50;;;;;;;;;;13106116;22;20097;-74
2024/03/12 18:57:53;;;;;;;8.52;5.72;;;;;;;;;;13105807;22;20407;-73
2024/03/12 19:03:04;;;;;;;8.95;5.90;;;;;;;;;;13068878;22;20035;-73
2024/03/12 19:08:09;;;;;;;9.57;6.03;;;;;;;;;;13098610;22;20021;-73
2024/03/12 19:13:15;;;;;;;11.00;6.65;;;;;;;;;;13105460;22;20450;-74
2024/03/12 19:18:22;;;;;;;10.60;5.97;;;;;;;;;;13096078;22;20469;-73
2024/03/12 19:23:25;;;;;;;;;;;;;;;;;;13104173;22;20098;-73
2024/03/12 19:28:30;;;;;;;7.38;4.47;;;;;;;;;;13103983;22;20362;-73
2024/03/12 19:33:34;;;;;;;10.82;6.38;;;;;;;;;;13065362;22;20046;-73
2024/03/12 19:38:39;;;;;;;8.43;5.78;;;;;;;;;;13104010;22;20554;-73
2024/03/12 19:43:45;;;;;;;8.07;5.35;;;;;;;;;;13106879;22;20765;-73
2024/03/12 19:48:50;;;;;;;7.10;4.80;;;;;;;;;;13104815;22;20062;-73
2024/03/12 19:53:54;;;;;;;6.78;4.40;;;;;;;;;;13104707;22;20043;-73
2024/03/12 19:58:58;;;;;;;5.53;3.70;;;;;;;;;;13103824;22;20023;-73
2024/03/12 20:04:02;;;;;;;7.07;4.40;;;;;;;;;;13102396;22;20738;-73
2024/03/12 20:09:21;;;;;;;5.95;4.13;;;;;;;;;;13102062;22;20050;-73
2024/03/12 20:14:28;;;;;;;10.07;6.07;;;;;;;;;;13102678;22;20498;-73
2024/03/12 20:19:37;;;;;;;7.78;4.93;;;;;;;;;;13101394;22;20078;-73
2024/03/12 20:24:40;;;;;;;9.25;4.68;;;;;;;;;;13071809;22;20092;-73
2024/03/12 20:29:45;;;;;;;9.80;5.55;;;;;;;;;;13106969;22;20101;-73
2024/03/12 20:34:48;;;;;;;10.27;6.03;;;;;;;;;;13099279;22;20110;-72
2024/03/12 20:39:52;;;;;;;7.60;4.80;;;;;;;;;;13099862;22;20057;-73
2024/03/12 20:44:57;;;;;;;9.70;6.07;;;;;;;;;;13099387;22;20346;-72
2024/03/12 20:50:00;;;;;;;10.27;6.00;;;;;;;;;;13098152;22;20126;-73
2024/03/12 20:55:03;;;;;;;6.85;4.95;;;;;;;;;;13098750;22;20426;-73
2024/03/12 21:00:17;;;;;;;9.52;5.47;;;;;;;;;;13099928;22;20042;-73
2024/03/12 21:05:21;;;;;;;7.40;4.80;;;;;;;;;;13119468;22;20027;-72
2024/03/12 21:10:24;;;;;;;7.05;4.40;;;;;;;;;;13100173;22;20023;-73
2024/03/12 21:15:29;;;;;;;9.93;5.63;;;;;;;;;;13117643;22;20022;-73
2024/03/12 21:20:34;;;;;;;9.88;6.07;;;;;;;;;;13118579;22;20032;-72
2024/03/12 21:25:37;;;;;;;10.07;6.00;;;;;;;;;;13117661;22;20314;-73
2024/03/12 21:30:42;;;;;;;14.77;7.60;;;;;;;;;;13116867;22;20040;-73
2024/03/12 21:35:45;;;;;;;12.93;7.15;;;;;;;;;;13045962;22;20030;-73
2024/03/12 21:40:49;;;;;;;10.75;6.22;;;;;;;;;;13097074;22;20026;-72
2024/03/12 21:45:54;;;;;;;8.00;5.18;;;;;;;;;;13099635;22;20026;-72
2024/03/12 21:50:58;;;;;;;10.25;5.00;;;;;;;;;;13116163;22;20343;-72
2024/03/12 21:56:01;;;;;;;7.63;4.63;;;;;;;;;;13072771;22;20037;-73
2024/03/12 22:01:06;;;;;;;7.38;4.90;;;;;;;;;;13115535;22;20506;-73
2024/03/12 22:06:10;;;;;;;6.00;4.38;;;;;;;;;;13116040;22;20018;-72
2024/03/12 22:11:15;;;;;;;9.40;5.45;;;;;;;;;;13100197;22;20053;-73
2024/03/12 22:16:20;;;;;;;7.85;5.28;;;;;;;;;;13114309;22;20084;-73
2024/03/12 22:21:25;;;;;;;5.90;3.92;;;;;;;;;;13099877;22;20049;-73
2024/03/12 22:26:29;;;;;;;6.47;4.38;;;;;;;;;;13115157;22;20043;-73
2024/03/12 22:31:33;;;;;;;9.13;4.50;;;;;;;;;;13113855;22;20102;-72
2024/03/12 22:36:36;;;;;;;7.13;4.13;;;;;;;;;;13114166;22;20405;-73
2024/03/12 22:41:47;;;;;;;5.30;3.60;;;;;;;;;;13098030;22;20050;-72
2024/03/12 22:46:52;;;;;;;5.47;3.47;;;;;;;;;;13112456;22;20106;-72
2024/03/12 22:51:57;;;;;;;5.43;3.90;;;;;;;;;;13111840;22;20556;-73
2024/03/12 22:57:01;;;;;;;4.22;3.42;;;;;;;;;;13112414;22;20023;-72
2024/03/12 23:02:09;;;;;;;5.35;3.65;;;;;;;;;;13099146;22;20094;-72
2024/03/12 23:07:13;;;;;;;5.68;3.65;;;;;;;;;;13100201;22;20027;-72
2024/03/12 23:12:17;;;;;;;4.72;3.42;;;;;;;;;;13109842;22;20629;-73
2024/03/12 23:17:22;;;;;;;4.55;3.05;;;;;;;;;;13111413;22;20075;-74
2024/03/12 23:22:27;;;;;;;6.57;3.70;;;;;;;;;;13038761;22;20510;-74
2024/03/12 23:27:31;;;;;;;5.65;3.88;;;;;;;;;;13011770;22;20101;-74
2024/03/12 23:32:36;;;;;;;3.70;3.00;;;;;;;;;;13049354;22;20023;-74
2024/03/12 23:37:41;;;;;;;3.10;2.47;;;;;;;;;;13013115;22;20047;-74
2024/03/12 23:42:45;;;;;;;3.00;2.30;;;;;;;;;;13048830;22;20024;-74
2024/03/12 23:47:51;;;;;;;2.38;1.80;;;;;;;;;;13048378;22;20024;-74
2024/03/12 23:52:54;;;;;;;3.07;2.00;;;;;;;;;;13048528;22;20034;-74
2024/03/12 23:57:59;;;;;;;3.45;2.33;;;;;;;;;;13039779;22;20485;-74
